Time;durP1;ratioP1;P1;durP2;ratioP2;P2;SDS_P1;SDS_P2;PMS_P1;PMS_P2;Temp;Humidity;BMP_temperature;BMP_pressure;BME280_temperature;BME280_humidity;BME280_pressure;Samples;Min_cycle;Max_cycle;Signal;HPM_P1;HPM_P2
2023/08/20 00:00:11;;;;;;;16.63;10.77;;;26.20;1.00;;;;;;5026838;28;20173;-73
2023/08/20 00:02:37;;;;;;;13.63;10.00;;;26.10;1.00;;;;;;5026035;28;20181;-73
2023/08/20 00:05:04;;;;;;;14.97;11.27;;;26.10;1.00;;;;;;5027945;28;20428;-72
2023/08/20 00:07:31;;;;;;;17.50;10.60;;;26.00;1.00;;;;;;5026133;28;20546;-72
2023/08/20 00:09:56;;;;;;;12.03;10.73;;;26.00;1.00;;;;;;5026462;28;20515;-72
2023/08/20 00:12:22;;;;;;;12.70;9.83;;;25.90;1.00;;;;;;5028347;28;20449;-73
2023/08/20 00:14:58;;;;;;;13.93;10.20;;;25.80;1.00;;;;;;5027998;28;20212;-73
2023/08/20 00:17:26;;;;;;;12.53;9.73;;;25.70;1.00;;;;;;5026566;28;20226;-73
2023/08/20 00:19:56;;;;;;;17.67;10.77;;;25.60;1.00;;;;;;5028214;28;20531;-72
2023/08/20 00:22:23;;;;;;;14.57;10.40;;;25.50;1.00;;;;;;5026479;28;20203;-73
2023/08/20 00:24:50;;;;;;;12.53;9.80;;;25.50;1.00;;;;;;5028939;28;21002;-72
2023/08/20 00:27:15;;;;;;;16.47;10.77;;;25.40;1.00;;;;;;5026974;28;20667;-73
2023/08/20 00:29:41;;;;;;;14.23;10.17;;;25.40;1.00;;;;;;5028058;28;20446;-73
2023/08/20 00:32:07;;;;;;;14.23;10.90;;;25.40;1.00;;;;;;5027209;28;20188;-73
2023/08/20 00:34:33;;;;;;;13.60;10.20;;;25.30;1.00;;;;;;5027142;28;20173;-73
2023/08/20 00:36:58;;;;;;;14.90;9.80;;;25.30;1.00;;;;;;5026564;28;20486;-73
2023/08/20 00:39:24;;;;;;;17.60;9.40;;;25.20;1.00;;;;;;5026279;28;20237;-73
2023/08/20 00:41:49;;;;;;;11.10;9.00;;;25.20;1.00;;;;;;5027369;28;20242;-72
2023/08/20 00:44:15;;;;;;;12.73;9.50;;;25.20;1.00;;;;;;5025145;28;20181;-73
2023/08/20 00:46:41;;;;;;;12.07;9.03;;;25.20;1.00;;;;;;5027793;28;20195;-73
2023/08/20 00:49:06;;;;;;;9.70;7.90;;;25.50;1.00;;;;;;5028545;28;20730;-73
2023/08/20 00:51:33;;;;;;;14.00;7.73;;;25.20;1.00;;;;;;5028310;28;20185;-73
2023/08/20 00:54:00;;;;;;;9.23;8.10;;;25.20;1.00;;;;;;5028365;28;20282;-72
2023/08/20 00:56:26;;;;;;;13.33;8.00;;;;;;;;;;5024522;28;20419;-73
2023/08/20 00:58:53;;;;;;;10.53;8.20;;;25.20;1.00;;;;;;5026158;28;20518;-72
2023/08/20 01:01:19;;;;;;;9.80;8.10;;;25.20;1.00;;;;;;5029652;28;21010;-73
2023/08/20 01:03:44;;;;;;;12.90;7.90;;;25.20;1.00;;;;;;5026199;28;20534;-73
2023/08/20 01:06:34;;;;;;;10.90;8.20;;;25.20;1.00;;;;;;5027266;28;20239;-73
2023/08/20 01:09:32;;;;;;;12.73;8.07;;;25.20;1.00;;;;;;5024801;28;20189;-73
2023/08/20 01:12:03;;;;;;;12.67;8.70;;;25.20;1.00;;;;;;5026272;28;20992;-73
2023/08/20 01:14:28;;;;;;;11.90;8.03;;;25.30;1.00;;;;;;5020961;28;20424;-72
2023/08/20 01:16:54;;;;;;;12.13;9.10;;;25.20;1.00;;;;;;5026521;28;20467;-72
2023/08/20 01:19:21;;;;;;;12.37;8.57;;;25.20;1.00;;;;;;5026915;28;20209;-73
2023/08/20 01:22:08;;;;;;;12.10;8.57;;;25.10;1.00;;;;;;5028113;28;20750;-72
2023/08/20 01:24:49;;;;;;;15.93;8.90;;;25.10;1.00;;;;;;5021548;28;20411;-73
2023/08/20 01:27:42;;;;;;;15.43;8.80;;;25.00;1.00;;;;;;5027825;28;20458;-72
2023/08/20 01:30:09;;;;;;;12.70;9.20;;;25.00;1.00;;;;;;5027787;28;20432;-73
2023/08/20 01:32:35;;;;;;;11.77;8.37;;;25.00;1.00;;;;;;5025644;28;20954;-73
2023/08/20 01:35:00;;;;;;;10.90;8.67;;;25.00;1.00;;;;;;5028407;28;20459;-73
2023/08/20 01:37:26;;;;;;;10.70;8.40;;;24.90;1.00;;;;;;5026304;28;20444;-73
2023/08/20 01:39:52;;;;;;;12.03;8.73;;;24.80;1.00;;;;;;5026427;28;20647;-73
2023/08/20 01:42:18;;;;;;;10.60;8.00;;;24.80;1.00;;;;;;5027721;28;20220;-73
2023/08/20 01:44:43;;;;;;;11.23;8.23;;;24.70;1.00;;;;;;5028485;28;20265;-72
2023/08/20 01:47:09;;;;;;;18.00;8.43;;;24.70;1.00;;;;;;5026917;28;20464;-74
2023/08/20 01:49:34;;;;;;;13.60;9.17;;;24.70;1.00;;;;;;5028494;28;20470;-73
2023/08/20 01:52:00;;;;;;;14.80;8.40;;;24.70;1.00;;;;;;5027238;28;20603;-73
2023/08/20 01:54:26;;;;;;;11.43;8.93;;;24.70;1.00;;;;;;5028105;28;20197;-73
2023/08/20 01:56:51;;;;;;;11.67;9.43;;;24.60;1.00;;;;;;5020031;28;20288;-73
2023/08/20 01:59:18;;;;;;;11.40;8.30;;;24.40;1.00;;;;;;5027833;28;20204;-73
2023/08/20 02:01:43;;;;;;;14.63;8.67;;;24.50;1.00;;;;;;5027694;28;20204;-71
2023/08/20 02:04:09;;;;;;;13.77;8.77;;;24.40;1.00;;;;;;5028007;28;20458;-73
2023/08/20 02:06:35;;;;;;;15.67;9.07;;;24.10;1.00;;;;;;5029856;28;20177;-73
2023/08/20 02:09:00;;;;;;;11.33;8.90;;;24.10;1.00;;;;;;5029764;28;20189;-73
2023/08/20 02:11:25;;;;;;;14.53;9.30;;;24.00;1.00;;;;;;5030585;28;20208;-73
2023/08/20 02:13:51;;;;;;;13.50;9.00;;;24.00;1.00;;;;;;5031516;28;20695;-72
2023/08/20 02:16:17;;;;;;;11.90;8.47;;;23.90;1.00;;;;;;5031356;28;20271;-73
2023/08/20 02:18:43;;;;;;;13.13;9.27;;;23.90;1.00;;;;;;5029747;28;20595;-72
2023/08/20 02:21:08;;;;;;;11.87;8.93;;;23.90;1.00;;;;;;5031130;28;20185;-73
2023/08/20 02:23:34;;;;;;;19.10;8.83;;;23.90;1.00;;;;;;5029388;28;20182;-73
2023/08/20 02:26:00;;;;;;;11.40;8.70;;;23.70;1.00;;;;;;5028052;28;20196;-72
2023/08/20 02:28:25;;;;;;;13.30;8.87;;;23.70;1.00;;;;;;5030889;28;20201;-72
2023/08/20 02:30:51;;;;;;;15.83;8.90;;;23.60;1.00;;;;;;5031209;28;20436;-72
2023/08/20 02:33:16;;;;;;;13.03;8.90;;;23.60;1.00;;;;;;5029830;28;20197;-72
2023/08/20 02:35:42;;;;;;;11.03;8.73;;;23.50;1.00;;;;;;5031311;28;20560;-73
2023/08/20 02:38:09;;;;;;;15.90;9.80;;;23.50;1.00;;;;;;5028809;28;20213;-72
2023/08/20 02:40:39;;;;;;;12.43;8.63;;;23.50;1.00;;;;;;5030226;28;20177;-74
2023/08/20 02:43:05;;;;;;;11.50;9.27;;;23.50;1.00;;;;;;5029802;28;20976;-73
2023/08/20 02:45:31;;;;;;;13.03;8.70;;;23.50;1.00;;;;;;5030911;28;20424;-73
2023/08/20 02:47:57;;;;;;;12.60;9.87;;;23.40;1.00;;;;;;5031067;28;20205;-73
2023/08/20 02:50:22;;;;;;;12.70;9.40;;;23.70;1.00;;;;;;5030813;28;20836;-73
2023/08/20 02:52:48;;;;;;;14.97;8.80;;;23.40;1.00;;;;;;5029868;28;20193;-73
2023/08/20 02:55:13;;;;;;;13.73;9.60;;;23.40;1.00;;;;;;5023860;28;20185;-73
2023/08/20 02:57:39;;;;;;;16.70;8.80;;;23.40;1.00;;;;;;5028312;28;20213;-73
2023/08/20 03:00:05;;;;;;;16.23;9.57;;;23.30;1.00;;;;;;5029684;28;20189;-73
2023/08/20 03:02:31;;;;;;;14.60;9.30;;;23.30;1.00;;;;;;5028599;28;20820;-73
2023/08/20 03:04:56;;;;;;;16.37;9.73;;;23.30;1.00;;;;;;5029390;28;20468;-73
2023/08/20 03:07:22;;;;;;;14.63;10.13;;;23.40;1.00;;;;;;5025723;28;20243;-73
2023/08/20 03:09:48;;;;;;;11.03;9.00;;;23.20;1.00;;;;;;5029856;28;20277;-73
2023/08/20 03:12:13;;;;;;;10.97;9.10;;;23.20;1.00;;;;;;5025710;28;20193;-73
2023/08/20 03:14:39;;;;;;;11.83;9.43;;;23.20;1.00;;;;;;5029802;28;20209;-72
2023/08/20 03:17:05;;;;;;;11.47;9.27;;;23.20;1.00;;;;;;5027061;28;20259;-73
2023/08/20 03:19:35;;;;;;;13.33;9.30;;;23.20;1.00;;;;;;5027025;28;20691;-73
2023/08/20 03:22:00;;;;;;;13.30;9.60;;;23.10;1.00;;;;;;5028301;28;20252;-73
2023/08/20 03:24:26;;;;;;;21.70;9.40;;;23.10;1.00;;;;;;5027223;28;20448;-73
2023/08/20 03:26:51;;;;;;;11.50;8.97;;;23.10;1.00;;;;;;5028200;28;20204;-73
2023/08/20 03:29:17;;;;;;;12.40;9.77;;;23.10;1.00;;;;;;5028999;28;20177;-73
2023/08/20 03:31:42;;;;;;;15.37;9.37;;;23.10;1.00;;;;;;5027644;28;20196;-73
2023/08/20 03:34:09;;;;;;;12.13;9.37;;;23.30;1.00;;;;;;5029427;28;20204;-72
2023/08/20 03:36:35;;;;;;;12.20;9.47;;;23.20;1.00;;;;;;5025945;28;21212;-73
2023/08/20 03:39:00;;;;;;;12.80;9.47;;;23.20;1.00;;;;;;5026758;28;20459;-73
2023/08/20 03:41:26;;;;;;;13.80;9.10;;;23.20;1.00;;;;;;5026172;28;20177;-73
2023/08/20 03:43:51;;;;;;;12.53;9.20;;;23.20;1.00;;;;;;5026706;28;20185;-72
2023/08/20 03:46:17;;;;;;;13.70;9.43;;;23.30;1.00;;;;;;5028185;28;20287;-73
2023/08/20 03:48:42;;;;;;;14.40;10.23;;;23.20;1.00;;;;;;5029049;28;20266;-73
2023/08/20 03:51:08;;;;;;;14.33;9.23;;;23.10;1.00;;;;;;5028337;28;20272;-73
2023/08/20 03:53:33;;;;;;;17.37;9.37;;;23.10;1.00;;;;;;5027108;28;20188;-72
2023/08/20 03:55:59;;;;;;;12.20;8.90;;;23.00;1.00;;;;;;5027745;28;20189;-73
2023/08/20 03:58:24;;;;;;;19.17;9.87;;;23.00;1.00;;;;;;5026602;28;20545;-73
2023/08/20 04:00:50;;;;;;;15.03;9.43;;;23.00;1.00;;;;;;5028129;28;20188;-72
2023/08/20 04:03:19;;;;;;;12.20;9.00;;;23.10;1.00;;;;;;5027497;28;20188;-73
2023/08/20 04:05:45;;;;;;;12.07;9.83;;;22.90;1.00;;;;;;5028354;28;20235;-72
2023/08/20 04:08:10;;;;;;;17.50;10.37;;;22.90;1.00;;;;;;5027278;28;20468;-73
2023/08/20 04:10:41;;;;;;;20.53;11.33;;;22.90;1.00;;;;;;5026210;28;20213;-72
2023/08/20 04:13:07;;;;;;;16.70;9.83;;;22.90;1.00;;;;;;5026469;28;20239;-72
2023/08/20 04:15:32;;;;;;;14.03;10.13;;;22.80;1.00;;;;;;5020822;28;20447;-72
2023/08/20 04:17:58;;;;;;;12.90;9.87;;;22.80;1.00;;;;;;5026862;28;20209;-72
2023/08/20 04:20:23;;;;;;;14.07;10.17;;;22.80;1.00;;;;;;5027620;28;20180;-72
2023/08/20 04:22:49;;;;;;;12.70;10.17;;;22.70;1.00;;;;;;5026726;28;20656;-72
2023/08/20 04:25:15;;;;;;;10.43;9.33;;;22.60;1.00;;;;;;5034097;28;20268;-72
2023/08/20 04:27:40;;;;;;;13.33;9.63;;;23.00;1.00;;;;;;5028935;28;20237;-73
2023/08/20 04:30:06;;;;;;;18.40;10.57;;;22.50;1.00;;;;;;5033193;28;20216;-72
2023/08/20 04:32:32;;;;;;;13.80;9.60;;;22.60;1.00;;;;;;5028709;28;20181;-72
2023/08/20 04:34:57;;;;;;;15.93;9.93;;;22.60;1.00;;;;;;5029371;28;20482;-73
2023/08/20 04:37:23;;;;;;;12.97;9.30;;;22.60;1.00;;;;;;5028492;28;20205;-73
2023/08/20 04:39:49;;;;;;;11.30;9.77;;;22.60;1.00;;;;;;5028701;28;20761;-72
2023/08/20 04:42:14;;;;;;;11.47;9.57;;;22.70;1.00;;;;;;5032725;28;20590;-73
2023/08/20 04:44:40;;;;;;;11.10;9.63;;;22.80;1.00;;;;;;5028855;28;20507;-72
2023/08/20 04:47:05;;;;;;;10.77;9.00;;;22.80;1.00;;;;;;5028719;28;20197;-72
2023/08/20 04:49:31;;;;;;;14.73;10.17;;;22.80;1.00;;;;;;5028699;28;20555;-72
2023/08/20 04:51:56;;;;;;;15.63;10.20;;;22.90;1.00;;;;;;5028805;28;20196;-73
2023/08/20 04:54:22;;;;;;;16.43;9.40;;;23.10;1.00;;;;;;5028371;28;20189;-73
2023/08/20 04:56:47;;;;;;;12.37;10.17;;;23.00;1.00;;;;;;5019816;28;20225;-73
2023/08/20 04:59:13;;;;;;;11.60;9.13;;;23.00;1.00;;;;;;5028924;28;20209;-73
2023/08/20 05:01:39;;;;;;;15.90;10.07;;;23.00;1.00;;;;;;5028038;28;20185;-72
2023/08/20 05:04:04;;;;;;;13.90;10.27;;;23.00;1.00;;;;;;5027612;28;20264;-73
2023/08/20 05:06:30;;;;;;;15.33;10.73;;;23.00;1.00;;;;;;5026670;28;20544;-72
2023/08/20 05:08:55;;;;;;;10.60;9.50;;;23.00;1.00;;;;;;5028053;28;20189;-73
2023/08/20 05:11:21;;;;;;;16.93;10.17;;;23.10;1.00;;;;;;5028245;28;20250;-72
2023/08/20 05:13:49;;;;;;;13.63;10.10;;;23.10;1.00;;;;;;5027996;28;20181;-72
2023/08/20 05:16:15;;;;;;;12.40;10.33;;;23.10;1.00;;;;;;5028672;28;20181;-73
2023/08/20 05:18:40;;;;;;;12.47;10.07;;;23.20;1.00;;;;;;5028804;28;20591;-73
2023/08/20 05:21:06;;;;;;;14.97;10.77;;;23.30;1.00;;;;;;5026714;28;20187;-72
2023/08/20 05:23:31;;;;;;;18.43;11.13;;;23.30;1.00;;;;;;5024793;28;20422;-73
2023/08/20 05:25:57;;;;;;;15.17;10.97;;;23.30;1.00;;;;;;5026491;28;20185;-73
2023/08/20 05:28:23;;;;;;;15.00;10.80;;;23.40;1.00;;;;;;5028299;28;20676;-72
2023/08/20 05:30:56;;;;;;;15.00;10.43;;;23.50;1.00;;;;;;5027793;28;20193;-73
2023/08/20 05:33:21;;;;;;;14.27;11.10;;;23.60;1.00;;;;;;5028383;28;20193;-73
2023/08/20 05:35:47;;;;;;;14.93;10.93;;;23.60;1.00;;;;;;5026644;28;21034;-73
2023/08/20 05:38:12;;;;;;;13.03;10.60;;;23.70;1.00;;;;;;5027784;28;20213;-73
2023/08/20 05:40:38;;;;;;;18.00;11.53;;;23.70;1.00;;;;;;5027105;28;20692;-73
2023/08/20 05:43:04;;;;;;;13.63;11.70;;;23.90;1.00;;;;;;5032153;28;20655;-72
2023/08/20 05:45:29;;;;;;;14.80;11.43;;;23.90;1.00;;;;;;5031958;28;20786;-72
2023/08/20 05:47:55;;;;;;;16.37;11.77;;;23.90;1.00;;;;;;5032161;28;20197;-73
2023/08/20 05:50:20;;;;;;;13.87;10.70;;;24.10;1.00;;;;;;5030762;28;20344;-72
2023/08/20 05:52:46;;;;;;;15.00;11.00;;;24.40;1.00;;;;;;5031253;28;20192;-73
2023/08/20 05:55:11;;;;;;;14.13;11.10;;;24.40;1.00;;;;;;5032207;28;20722;-73
2023/08/20 05:57:37;;;;;;;15.53;11.37;;;24.50;1.00;;;;;;5030908;28;20205;-73
2023/08/20 06:00:04;;;;;;;14.63;11.60;;;24.70;1.00;;;;;;5030605;28;20283;-73
2023/08/20 06:02:30;;;;;;;14.30;11.10;;;24.80;1.00;;;;;;5029697;28;20185;-73
2023/08/20 06:04:55;;;;;;;17.77;11.20;;;24.90;1.00;;;;;;5030963;28;20424;-73
2023/08/20 06:07:21;;;;;;;15.70;11.13;;;25.20;1.00;;;;;;5031297;28;20209;-72
2023/08/20 06:09:47;;;;;;;12.83;11.10;;;25.10;1.00;;;;;;5031339;28;20185;-73
2023/08/20 06:12:12;;;;;;;15.17;10.60;;;25.10;1.00;;;;;;5031316;28;20203;-74
2023/08/20 06:14:38;;;;;;;15.70;12.30;;;25.00;1.00;;;;;;5029971;28;20215;-74
2023/08/20 06:17:04;;;;;;;20.43;11.37;;;25.00;1.00;;;;;;5026011;28;20208;-75
2023/08/20 06:19:29;;;;;;;15.37;11.60;;;25.20;1.00;;;;;;5029563;28;20205;-74
2023/08/20 06:21:55;;;;;;;14.07;12.57;;;25.10;1.00;;;;;;5028893;28;20185;-74
2023/08/20 06:24:20;;;;;;;14.30;11.30;;;25.20;1.00;;;;;;5029295;28;20173;-75
2023/08/20 06:26:46;;;;;;;13.20;11.80;;;25.30;1.00;;;;;;5030425;28;20614;-73
2023/08/20 06:29:11;;;;;;;13.43;10.80;;;25.30;1.00;;;;;;5031400;28;20690;-74
2023/08/20 06:31:37;;;;;;;17.57;11.93;;;25.50;1.00;;;;;;5027515;28;20243;-73
2023/08/20 06:34:02;;;;;;;18.10;11.77;;;25.80;1.00;;;;;;5028177;28;20185;-74
2023/08/20 06:36:28;;;;;;;14.80;11.53;;;26.20;1.00;;;;;;5026569;28;20196;-73
2023/08/20 06:38:53;;;;;;;14.17;11.33;;;26.10;1.00;;;;;;5027871;28;20212;-74
2023/08/20 06:41:19;;;;;;;14.30;10.90;;;26.20;1.00;;;;;;5027490;28;20656;-73
2023/08/20 06:43:44;;;;;;;12.30;10.90;;;26.10;1.00;;;;;;5029008;28;20260;-73
2023/08/20 06:46:10;;;;;;;13.97;10.77;;;26.20;1.00;;;;;;5028439;28;20605;-73
2023/08/20 06:48:35;;;;;;;17.33;10.90;;;26.30;1.00;;;;;;5028431;28;20739;-73
2023/08/20 06:51:15;;;;;;;15.33;11.50;;;26.40;1.00;;;;;;5028404;28;20207;-74
2023/08/20 06:53:41;;;;;;;15.63;11.27;;;26.50;1.00;;;;;;5027176;28;20181;-75
2023/08/20 06:56:13;;;;;;;12.73;10.50;;;26.60;1.00;;;;;;5028622;28;20814;-74
2023/08/20 06:58:41;;;;;;;17.60;11.63;;;26.70;1.00;;;;;;5028603;28;20488;-74
2023/08/20 07:01:07;;;;;;;17.03;10.30;;;26.60;1.00;;;;;;5029050;28;20181;-74
2023/08/20 07:03:40;;;;;;;15.33;11.33;;;26.80;1.00;;;;;;5024547;28;20185;-74
2023/08/20 07:06:06;;;;;;;14.77;11.17;;;26.80;1.00;;;;;;5028332;28;20531;-74
2023/08/20 07:08:32;;;;;;;15.57;11.27;;;27.00;1.00;;;;;;5026917;28;20270;-74
2023/08/20 07:10:58;;;;;;;17.50;11.60;;;27.30;1.00;;;;;;5027713;28;20185;-74
2023/08/20 07:13:24;;;;;;;15.00;11.53;;;27.50;1.00;;;;;;5026248;28;20200;-74
2023/08/20 07:15:49;;;;;;;14.30;11.57;;;27.60;1.00;;;;;;5028511;28;20181;-74
2023/08/20 07:18:15;;;;;;;14.23;11.77;;;27.60;1.00;;;;;;5028776;28;20291;-74
2023/08/20 07:20:44;;;;;;;15.03;12.00;;;27.50;1.00;;;;;;5028264;28;20671;-74
2023/08/20 07:23:10;;;;;;;15.40;11.17;;;27.50;1.00;;;;;;5028200;28;20200;-75
2023/08/20 07:25:37;;;;;;;15.07;11.67;;;27.60;1.00;;;;;;5027213;28;20201;-75
2023/08/20 07:28:04;;;;;;;18.07;12.10;;;27.60;1.00;;;;;;5024264;28;20212;-74
2023/08/20 07:30:30;;;;;;;16.60;11.53;;;27.60;1.00;;;;;;5021273;28;20598;-74
2023/08/20 07:32:55;;;;;;;12.97;11.40;;;27.80;1.00;;;;;;5028628;28;20181;-74
2023/08/20 07:35:21;;;;;;;13.77;11.03;;;28.00;1.00;;;;;;5028941;28;20555;-74
2023/08/20 07:37:47;;;;;;;14.63;10.57;;;28.10;1.00;;;;;;5026311;28;20300;-75
2023/08/20 07:40:13;;;;;;;17.40;11.23;;;28.60;1.00;;;;;;5027953;28;20188;-74
2023/08/20 07:42:40;;;;;;;14.80;10.80;;;28.60;1.00;;;;;;5027476;28;20190;-75
2023/08/20 07:45:07;;;;;;;13.93;11.63;;;28.90;1.00;;;;;;5020601;28;20272;-74
2023/08/20 07:47:32;;;;;;;12.37;10.20;;;28.90;1.00;;;;;;5026289;28;20212;-73
2023/08/20 07:49:58;;;;;;;15.47;11.47;;;29.20;1.00;;;;;;5027287;28;20196;-74
2023/08/20 07:52:23;;;;;;;12.60;9.50;;;29.70;1.00;;;;;;5024270;28;20182;-76
2023/08/20 07:54:49;;;;;;;13.45;10.00;;;30.50;1.00;;;;;;5029394;28;20264;-73
2023/08/20 07:57:14;;;;;;;15.73;8.63;;;31.50;1.00;;;;;;5027986;28;20205;-76
2023/08/20 07:59:40;;;;;;;12.60;9.05;;;32.70;1.00;;;;;;5027578;28;20201;-77
2023/08/20 08:02:05;;;;;;;16.77;9.90;;;33.40;1.00;;;;;;5027894;28;20556;-75
2023/08/20 08:04:31;;;;;;;9.38;8.38;;;34.30;1.00;;;;;;5027661;28;20216;-78
2023/08/20 08:06:56;;;;;;;10.80;7.53;;;35.10;1.00;;;;;;5027320;28;20610;-76
2023/08/20 08:09:28;;;;;;;10.75;7.95;;;35.70;1.00;;;;;;5028594;28;20192;-76
2023/08/20 08:11:54;;;;;;;10.43;8.38;;;35.80;1.00;;;;;;5027123;28;20185;-76
2023/08/20 08:14:19;;;;;;;9.85;7.40;;;36.10;1.00;;;;;;5028139;28;20255;-76
2023/08/20 08:16:46;;;;;;;11.75;8.10;;;35.20;1.00;;;;;;5026729;28;20280;-77
2023/08/20 08:19:12;;;;;;;11.48;7.97;;;35.10;1.00;;;;;;5029177;28;20240;-76
2023/08/20 08:21:37;;;;;;;8.70;7.78;;;34.80;1.00;;;;;;5025868;28;20209;-77
2023/08/20 08:24:03;;;;;;;19.65;7.63;;;35.40;1.00;;;;;;5025329;28;20685;-77
2023/08/20 08:26:29;;;;;;;12.63;8.25;;;37.00;1.00;;;;;;5027873;28;20679;-76
2023/08/20 08:28:55;;;;;;;8.23;7.43;;;36.90;1.00;;;;;;5027929;28;20189;-74
2023/08/20 08:31:20;;;;;;;13.10;7.70;;;37.40;1.00;;;;;;5025262;28;20525;-74
2023/08/20 08:33:46;;;;;;;10.52;7.40;;;37.90;1.00;;;;;;5026932;28;20189;-74
2023/08/20 08:36:11;;;;;;;9.77;7.53;;;38.40;1.00;;;;;;5019725;28;20282;-76
2023/08/20 08:38:37;;;;;;;12.05;7.82;;;38.60;1.00;;;;;;5023776;28;20205;-74
2023/08/20 08:41:10;;;;;;;12.98;8.13;;;38.70;1.00;;;;;;5026917;28;20188;-75
2023/08/20 08:43:37;;;;;;;9.40;6.82;;;38.80;1.00;;;;;;5027966;28;20178;-73
2023/08/20 08:46:06;;;;;;;8.43;7.35;;;38.80;1.00;;;;;;5026595;28;20189;-75
2023/08/20 08:48:32;;;;;;;10.90;6.93;;;39.00;1.00;;;;;;5022046;28;20255;-74
2023/08/20 08:50:58;;;;;;;9.75;7.32;;;39.50;1.00;;;;;;5020809;28;20190;-76
2023/08/20 08:53:25;;;;;;;10.48;7.38;;;39.70;1.00;;;;;;5027618;28;20190;-75
2023/08/20 08:55:51;;;;;;;10.02;7.40;;;39.60;1.00;;;;;;5024596;28;20247;-77
2023/08/20 08:58:16;;;;;;;8.60;7.10;;;39.70;1.00;;;;;;5024833;28;20225;-75
2023/08/20 09:00:42;;;;;;;11.35;7.40;;;39.80;1.00;;;;;;5025908;28;20196;-77
2023/08/20 09:03:07;;;;;;;10.35;7.03;;;40.00;1.00;;;;;;5025311;28;20567;-81
2023/08/20 09:05:44;;;;;;;10.43;7.53;;;40.30;1.00;;;;;;5028269;28;20727;-79
2023/08/20 09:08:18;;;;;;;10.38;6.70;;;40.70;1.00;;;;;;5028949;28;20278;-79
2023/08/20 09:10:43;;;;;;;15.90;7.78;;;41.20;1.00;;;;;;5026207;28;20201;-79
2023/08/20 09:13:09;;;;;;;13.48;6.80;;;41.40;1.00;;;;;;5040526;28;20188;-75
2023/08/20 09:15:35;;;;;;;9.50;6.63;;;41.30;1.00;;;;;;5025466;28;20266;-82
2023/08/20 09:18:03;;;;;;;12.55;6.70;;;41.80;1.00;;;;;;5026414;28;20216;-76
2023/08/20 09:20:38;;;;;;;10.88;7.18;;;42.30;1.00;;;;;;5027787;28;20548;-75
2023/08/20 09:23:10;;;;;;;7.80;6.53;;;42.30;1.00;;;;;;5028592;28;20211;-76
2023/08/20 09:25:36;;;;;;;9.82;7.18;;;42.10;1.00;;;;;;5028993;28;20177;-75
2023/08/20 09:28:04;;;;;;;14.10;7.05;;;41.90;1.00;;;;;;5027164;28;20545;-75
2023/08/20 09:30:30;;;;;;;7.80;7.00;;;41.90;1.00;;;;;;5027498;28;20656;-76
2023/08/20 09:33:11;;;;;;;8.25;6.63;;;41.60;1.00;;;;;;5026569;28;20196;-76
2023/08/20 09:35:37;;;;;;;8.32;6.88;;;42.10;1.00;;;;;;5023800;28;20255;-76
2023/08/20 09:38:05;;;;;;;7.75;6.03;;;42.10;1.00;;;;;;5028551;28;20353;-75
2023/08/20 09:40:31;;;;;;;9.07;6.47;;;42.40;1.00;;;;;;5023527;28;20227;-78
2023/08/20 09:42:57;;;;;;;7.18;6.47;;;42.80;1.00;;;;;;5028775;28;20218;-75
2023/08/20 09:45:28;;;;;;;9.63;6.80;;;43.20;1.00;;;;;;5027533;28;20174;-76
2023/08/20 09:47:58;;;;;;;9.90;6.95;;;43.30;1.00;;;;;;5028617;28;20205;-76
2023/08/20 09:50:25;;;;;;;9.45;6.20;;;43.60;1.00;;;;;;5019773;28;20185;-75
2023/08/20 09:53:11;;;;;;;8.25;6.93;;;43.70;1.00;;;;;;5027943;28;20205;-75
2023/08/20 09:55:41;;;;;;;8.07;6.53;;;43.80;1.00;;;;;;5040987;28;20193;-76
2023/08/20 09:58:07;;;;;;;11.48;6.65;;;44.30;1.00;;;;;;5027795;28;20209;-76
2023/08/20 10:00:33;;;;;;;7.85;6.63;;;44.10;1.00;;;;;;5028155;28;20181;-76
2023/08/20 10:02:59;;;;;;;8.77;6.57;;;44.10;1.00;;;;;;5027078;28;20184;-76
2023/08/20 10:05:25;;;;;;;8.00;6.35;;;44.40;1.00;;;;;;5028744;28;20621;-76
2023/08/20 10:07:51;;;;;;;8.35;6.53;;;44.20;1.00;;;;;;5026965;28;20213;-76
2023/08/20 10:10:17;;;;;;;10.23;6.20;;;44.20;1.00;;;;;;5027096;28;20177;-76
2023/08/20 10:12:44;;;;;;;10.40;6.68;;;44.10;1.00;;;;;;5028442;28;20266;-75
2023/08/20 10:15:12;;;;;;;8.00;6.32;;;44.20;1.00;;;;;;5028128;28;20704;-76
2023/08/20 10:17:39;;;;;;;8.60;6.43;;;45.00;1.00;;;;;;5027927;28;20217;-76
2023/08/20 10:20:06;;;;;;;7.22;6.40;;;45.40;1.00;;;;;;5026674;28;20186;-76
2023/08/20 10:22:39;;;;;;;9.70;6.05;;;45.50;1.00;;;;;;5028102;28;20199;-76
2023/08/20 10:25:24;;;;;;;7.97;6.07;;;45.70;1.00;;;;;;5025662;28;20178;-76
2023/08/20 10:27:51;;;;;;;6.85;6.15;;;45.60;1.00;;;;;;5029517;28;20574;-76
2023/08/20 10:30:20;;;;;;;9.68;6.10;;;45.80;1.00;;;;;;5030720;28;20197;-76
2023/08/20 10:32:57;;;;;;;6.35;5.70;;;46.00;1.00;;;;;;5031664;28;20320;-76
2023/08/20 10:35:27;;;;;;;10.85;6.45;;;46.10;1.00;;;;;;5031673;28;20586;-76
2023/08/20 10:38:07;;;;;;;9.85;6.78;;;46.30;1.00;;;;;;5031358;28;20587;-76
2023/08/20 10:40:58;;;;;;;7.35;5.85;;;45.60;1.00;;;;;;5030647;28;20209;-75
2023/08/20 10:43:34;;;;;;;7.28;6.10;;;45.80;1.00;;;;;;5030304;28;20177;-76
2023/08/20 10:46:06;;;;;;;8.95;6.03;;;46.00;1.00;;;;;;5029737;28;20181;-77
2023/08/20 10:48:35;;;;;;;8.18;6.28;;;46.20;1.00;;;;;;5028266;28;20208;-76
2023/08/20 10:51:11;;;;;;;6.20;5.60;;;46.20;1.00;;;;;;5030690;28;20661;-76
2023/08/20 10:53:37;;;;;;;6.38;5.70;;;45.70;1.00;;;;;;5025610;28;20212;-76
2023/08/20 10:56:09;;;;;;;10.65;5.45;;;45.80;1.00;;;;;;5029623;28;20220;-76
2023/08/20 10:58:35;;;;;;;9.80;5.97;;;46.20;1.00;;;;;;5030870;28;20241;-76
2023/08/20 11:01:17;;;;;;;7.00;5.60;;;46.50;1.00;;;;;;5029313;28;20223;-77
2023/08/20 11:03:46;;;;;;;7.22;5.75;;;47.30;1.00;;;;;;5030929;28;20205;-76
2023/08/20 11:06:12;;;;;;;6.88;5.28;;;47.50;1.00;;;;;;5031038;28;20292;-76
2023/08/20 11:08:41;;;;;;;8.10;5.57;;;47.50;1.00;;;;;;5031009;28;20299;-76
2023/08/20 11:11:08;;;;;;;7.15;5.40;;;47.50;1.00;;;;;;5030377;28;20181;-76
2023/08/20 11:13:34;;;;;;;8.32;6.00;;;47.40;1.00;;;;;;5030620;28;20181;-76
2023/08/20 11:16:02;;;;;;;11.15;5.60;;;47.30;1.00;;;;;;5030733;28;20220;-76
2023/08/20 11:18:27;;;;;;;7.47;5.55;;;47.80;1.00;;;;;;5030712;28;20209;-76
2023/08/20 11:20:54;;;;;;;13.85;6.30;;;48.00;1.00;;;;;;5030870;28;20744;-77
2023/08/20 11:23:21;;;;;;;8.18;5.78;;;47.50;1.00;;;;;;5030441;28;20177;-76
2023/08/20 11:25:47;;;;;;;6.25;5.40;;;47.80;1.00;;;;;;5030818;28;20648;-76
2023/08/20 11:28:13;;;;;;;9.02;5.70;;;48.10;1.00;;;;;;5029903;28;20205;-76
2023/08/20 11:30:38;;;;;;;5.47;4.97;;;47.30;1.00;;;;;;5030587;28;20185;-76
2023/08/20 11:33:05;;;;;;;9.85;5.28;;;47.20;1.00;;;;;;5030317;28;20555;-76
2023/08/20 11:35:31;;;;;;;7.68;5.82;;;46.70;1.00;;;;;;5031122;28;20543;-76
2023/08/20 11:37:57;;;;;;;8.27;5.72;;;46.50;1.00;;;;;;5030044;28;20201;-76
2023/08/20 11:40:23;;;;;;;8.07;5.35;;;46.80;1.00;;;;;;5025268;28;20185;-77
2023/08/20 11:42:49;;;;;;;8.57;5.63;;;47.10;1.00;;;;;;5030219;28;20500;-77
2023/08/20 11:45:15;;;;;;;8.77;6.07;;;47.30;1.00;;;;;;5030188;28;20239;-77
2023/08/20 11:47:41;;;;;;;7.90;5.88;;;46.90;1.00;;;;;;5030380;28;20739;-77
2023/08/20 11:50:08;;;;;;;8.40;5.60;;;46.00;1.00;;;;;;5028686;28;20297;-77
2023/08/20 11:52:34;;;;;;;9.98;5.30;;;45.90;1.00;;;;;;5021655;28;20235;-77
2023/08/20 11:55:00;;;;;;;7.13;5.60;;;46.70;1.00;;;;;;5024779;28;20188;-77
2023/08/20 11:57:28;;;;;;;6.07;5.13;;;48.00;1.00;;;;;;5036030;28;20197;-77
2023/08/20 11:59:53;;;;;;;6.57;5.18;;;48.60;1.00;;;;;;5029825;28;20710;-77
2023/08/20 12:02:27;;;;;;;7.97;5.20;;;49.10;1.00;;;;;;5029519;28;20203;-77
2023/08/20 12:04:55;;;;;;;9.70;4.90;;;49.30;1.00;;;;;;5030629;28;20181;-77
2023/08/20 12:07:24;;;;;;;6.28;4.53;;;49.20;1.00;;;;;;5028933;28;20686;-77
2023/08/20 12:09:50;;;;;;;5.90;4.95;;;48.90;1.00;;;;;;5028626;28;20189;-77
2023/08/20 12:12:20;;;;;;;5.10;4.60;;;49.40;1.00;;;;;;5028897;28;20181;-78
2023/08/20 12:14:46;;;;;;;7.80;5.28;;;49.70;1.00;;;;;;5029678;28;20181;-78
2023/08/20 12:17:11;;;;;;;7.30;4.93;;;50.20;1.00;;;;;;5027753;28;20293;-77
2023/08/20 12:19:37;;;;;;;9.90;5.38;;;49.90;1.00;;;;;;5028560;28;20212;-77
2023/08/20 12:22:03;;;;;;;5.63;4.80;;;48.70;1.00;;;;;;5029414;28;20640;-77
2023/08/20 12:24:29;;;;;;;7.93;5.32;;;47.40;1.00;;;;;;5029184;28;20193;-77
2023/08/20 12:26:55;;;;;;;6.80;5.63;;;46.20;1.00;;;;;;5028834;28;20204;-77
2023/08/20 12:29:20;;;;;;;7.88;5.63;;;45.40;1.00;;;;;;5028111;28;20204;-77
2023/08/20 12:31:46;;;;;;;9.85;5.20;;;44.60;1.00;;;;;;5027339;28;20686;-76
2023/08/20 12:34:11;;;;;;;6.38;5.20;;;44.30;1.00;;;;;;5028994;28;20181;-76
2023/08/20 12:36:37;;;;;;;7.47;5.28;;;43.50;1.00;;;;;;5027494;28;20181;-76
2023/08/20 12:39:04;;;;;;;6.10;5.03;;;43.50;1.00;;;;;;5022333;28;20328;-76
2023/08/20 12:41:30;;;;;;;5.57;4.90;;;44.60;1.00;;;;;;5027305;28;20666;-77
2023/08/20 12:43:55;;;;;;;6.25;4.93;;;46.00;1.00;;;;;;5028192;28;20185;-77
2023/08/20 12:46:21;;;;;;;6.18;5.40;;;47.20;1.00;;;;;;5028869;28;20678;-77